Time;durP1;ratioP1;P1;durP2;ratioP2;P2;SDS_P1;SDS_P2;PMS_P1;PMS_P2;Temp;Humidity;BMP_temperature;BMP_pressure;BME280_temperature;BME280_humidity;BME280_pressure;Samples;Min_cycle;Max_cycle;Signal;HPM_P1;HPM_P2
2021/09/22 00:01:35;;;;;;;;;37.00;33.50;;;;;16.76;50.12;102433.31;5021264;28;45587;-47
2021/09/22 00:04:00;;;;;;;;;36.00;34.00;;;;;16.73;50.31;102423.59;5020888;28;45431;-45
2021/09/22 00:06:25;;;;;;;;;36.25;30.00;;;;;16.71;50.48;102425.41;5021065;28;45299;-46
2021/09/22 00:08:51;;;;;;;;;37.50;33.25;;;;;16.69;50.27;102421.91;5020081;28;45355;-44
2021/09/22 00:11:16;;;;;;;;;35.50;31.75;;;;;16.67;50.51;102418.38;5003304;28;45196;-46
2021/09/22 00:13:42;;;;;;;;;36.00;33.25;;;;;16.65;50.59;102420.16;5001099;28;46205;-46
2021/09/22 00:16:07;;;;;;;;;30.75;30.25;;;;;16.65;50.36;102429.91;5001430;28;45234;-48
2021/09/22 00:18:33;;;;;;;;;39.50;29.75;;;;;16.60;50.20;102427.31;5001440;28;45510;-49
2021/09/22 00:20:59;;;;;;;;;40.50;35.25;;;;;16.61;50.26;102417.59;5001036;28;45279;-48
2021/09/22 00:23:24;;;;;;;;;38.50;33.25;;;;;16.56;50.39;102409.69;5001223;28;45593;-46
2021/09/22 00:25:49;;;;;;;;;32.25;29.50;;;;;16.56;50.55;102417.63;5016012;28;45377;-47
2021/09/22 00:28:15;;;;;;;;;38.50;34.75;;;;;16.54;50.46;102422.97;5014169;28;45255;-46
2021/09/22 00:30:40;;;;;;;;;39.25;30.50;;;;;16.50;50.55;102418.63;5004414;28;45365;-48
2021/09/22 00:33:06;;;;;;;;;36.00;32.50;;;;;16.49;50.76;102423.91;5012680;28;46142;-46
2021/09/22 00:35:32;;;;;;;;;37.25;34.50;;;;;16.47;50.77;102410.66;5020613;28;45269;-45
2021/09/22 00:37:58;;;;;;;;;39.00;32.75;;;;;16.47;50.53;102410.66;5020928;28;45319;-49
2021/09/22 00:40:23;;;;;;;;;38.00;33.00;;;;;16.45;50.57;102419.56;5019409;28;45602;-48
2021/09/22 00:42:49;;;;;;;;;34.25;31.00;;;;;16.42;50.46;102408.06;5020543;28;45293;-46
2021/09/22 00:45:17;;;;;;;;;38.25;32.50;;;;;16.39;50.60;102413.44;5020662;28;45227;-47
2021/09/22 00:47:43;;;;;;;;;42.25;33.50;;;;;16.40;50.35;102408.97;5020464;28;45297;-48
2021/09/22 00:50:10;;;;;;;;;37.50;32.00;;;;;16.37;50.63;102412.56;5020290;28;45264;-49
2021/09/22 00:52:37;;;;;;;;;35.25;32.00;;;;;16.33;50.90;102402.03;5019214;28;46887;-47
2021/09/22 00:55:04;;;;;;;;;35.75;32.75;;;;;16.34;50.65;102406.41;5020346;28;45369;-44
2021/09/22 00:57:30;;;;;;;;;34.75;31.75;;;;;16.32;50.79;102410.88;5020027;28;45354;-44
2021/09/22 00:59:55;;;;;;;;;33.25;31.25;;;;;16.31;50.95;102403.78;5019188;28;45808;-46
2021/09/22 01:02:21;;;;;;;;;32.50;29.50;;;;;16.29;50.51;102405.59;5020002;28;45366;-48
2021/09/22 01:04:46;;;;;;;;;41.50;35.25;;;;;16.27;51.03;102408.25;5019736;28;45226;-47
2021/09/22 01:07:13;;;;;;;;;41.50;33.25;;;;;16.26;50.70;102403.84;5020511;28;45170;-45
2021/09/22 01:09:40;;;;;;;;;38.50;32.50;;;;;16.25;51.07;102405.63;5013653;28;45334;-48
2021/09/22 01:12:06;;;;;;;;;36.75;31.00;;;;;16.23;50.60;102401.25;5000227;28;45320;-48
2021/09/22 01:14:32;;;;;;;;;39.50;33.75;;;;;16.20;50.85;102402.16;5000309;28;45341;-47
2021/09/22 01:16:57;;;;;;;;;38.75;31.25;;;;;16.19;51.12;102400.41;5000620;28;45408;-46
2021/09/22 01:19:23;;;;;;;;;36.25;32.50;;;;;16.18;51.16;102397.75;5000047;28;45566;-47
2021/09/22 01:21:52;;;;;;;;;36.00;32.00;;;;;16.16;50.71;102400.44;5000156;28;45326;-49
2021/09/22 01:24:19;;;;;;;;;29.75;28.50;;;;;16.15;50.91;102392.47;5000548;28;45179;-45
2021/09/22 01:26:46;;;;;;;;;42.25;32.75;;;;;16.13;51.01;102389.84;4998757;28;45453;-47
2021/09/22 01:29:11;;;;;;;;;39.25;35.00;;;;;16.12;51.03;102392.53;5000310;28;45254;-47
2021/09/22 01:31:38;;;;;;;;;36.25;31.25;;;;;16.09;50.97;102391.66;5000750;28;46074;-48
2021/09/22 01:34:05;;;;;;;;;32.00;31.00;;;;;16.07;51.16;102392.56;5019813;28;45352;-45
2021/09/22 01:36:31;;;;;;;;;35.25;32.00;;;;;16.06;51.44;102385.50;5019901;28;45288;-46
2021/09/22 01:38:57;;;;;;;;;43.25;33.50;;;;;16.05;51.47;102378.44;5019830;28;45522;-46
2021/09/22 01:41:22;;;;;;;;;33.00;30.75;;;;;16.04;51.47;102382.88;5019728;28;45448;-44
2021/09/22 01:43:48;;;;;;;;;45.25;35.25;;;;;16.03;51.15;102377.59;5019711;28;45330;-46
2021/09/22 01:46:14;;;;;;;;;39.50;32.50;;;;;16.00;51.54;102361.72;5019989;28;45237;-45
2021/09/22 01:48:39;;;;;;;;;39.25;34.00;;;;;15.97;51.43;102365.28;5019793;28;45157;-49
2021/09/22 01:51:07;;;;;;;;;36.50;32.50;;;;;15.96;51.17;102365.28;5004637;28;45513;-46
2021/09/22 01:53:33;;;;;;;;;36.50;32.25;;;;;15.96;51.15;102373.25;5019834;28;45352;-49
2021/09/22 01:56:00;;;;;;;;;42.00;33.25;;;;;15.95;51.21;102369.72;5019558;28;45487;-49
2021/09/22 01:58:28;;;;;;;;;36.50;32.25;;;;;15.93;51.06;102375.03;5019446;28;45442;-49
2021/09/22 02:00:55;;;;;;;;;32.00;31.00;;;;;15.92;51.67;102375.94;5019378;28;46181;-47
2021/09/22 02:03:20;;;;;;;;;28.75;27.00;;;;;15.90;51.55;102369.78;5019573;28;45391;-49
2021/09/22 02:05:46;;;;;;;;;40.50;32.00;;;;;15.90;51.64;102374.22;5019152;28;45343;-47
2021/09/22 02:08:11;;;;;;;;;39.00;32.25;;;;;15.88;51.48;102373.34;5019483;28;45395;-44
2021/09/22 02:10:37;;;;;;;;;36.25;31.25;;;;;15.87;51.76;102376.88;5003176;28;47446;-48
2021/09/22 02:13:03;;;;;;;;;37.50;32.25;;;;;15.86;51.46;102375.13;4999742;28;45361;-46
2021/09/22 02:15:29;;;;;;;;;36.00;30.50;;;;;15.83;51.75;102376.03;5013154;28;45289;-48
2021/09/22 02:17:54;;;;;;;;;34.50;31.50;;;;;15.82;51.70;102370.75;5003394;28;45200;-44
2021/09/22 02:20:20;;;;;;;;;38.00;32.00;;;;;15.80;51.71;102356.59;5014858;28;46125;-48
2021/09/22 02:22:45;;;;;;;;;42.75;34.25;;;;;15.79;51.57;102355.72;5003014;28;45301;-47
2021/09/22 02:25:12;;;;;;;;;38.25;32.75;;;;;15.76;51.78;102338.09;5002995;28;45524;-47
2021/09/22 02:27:38;;;;;;;;;38.25;32.75;;;;;15.75;51.46;102341.63;5002974;28;45495;-45
2021/09/22 02:30:05;;;;;;;;;37.00;33.00;;;;;15.75;51.80;102332.81;5002660;28;46186;-48
2021/09/22 02:32:31;;;;;;;;;41.75;33.00;;;;;15.72;51.76;102324.88;5011201;28;45356;-44
2021/09/22 02:34:56;;;;;;;;;36.50;32.00;;;;;15.70;51.92;102316.94;5022518;28;45352;-44
2021/09/22 02:37:22;;;;;;;;;42.50;35.75;;;;;15.68;51.66;102317.84;5022810;28;45361;-44
2021/09/22 02:39:47;;;;;;;;;40.75;34.25;;;;;15.69;51.86;102324.91;5022468;28;45713;-44
2021/09/22 02:42:12;;;;;;;;;33.75;31.50;;;;;15.67;51.54;102313.44;5022620;28;45316;-48
2021/09/22 02:44:38;;;;;;;;;38.50;31.00;;;;;15.66;51.75;102319.63;5022774;28;45693;-44
2021/09/22 02:47:03;;;;;;;;;36.00;31.50;;;;;15.65;52.10;102308.16;5022400;28;45522;-44
2021/09/22 02:49:29;;;;;;;;;39.00;33.50;;;;;15.63;52.04;102309.94;5022254;28;45498;-55
2021/09/22 02:51:54;;;;;;;;;37.00;33.50;;;;;15.62;52.05;102307.31;5022647;28;45307;-45
2021/09/22 02:54:19;;;;;;;;;41.75;34.50;;;;;15.60;51.90;102299.38;5022504;28;45329;-49
2021/09/22 02:56:45;;;;;;;;;36.00;32.50;;;;;15.60;51.48;102308.19;5022410;28;45576;-48
2021/09/22 02:59:10;;;;;;;;;35.25;32.25;;;;;15.60;52.04;102308.19;5021990;28;46051;-43
2021/09/22 03:01:35;;;;;;;;;39.50;33.00;;;;;15.58;51.63;102296.75;5022388;28;45409;-49
2021/09/22 03:04:01;;;;;;;;;32.50;30.50;;;;;15.56;51.72;102290.59;5021012;28;45520;-48
2021/09/22 03:06:27;;;;;;;;;37.00;32.25;;;;;15.54;51.75;102291.50;5021022;28;45517;-45
2021/09/22 03:08:52;;;;;;;;;40.75;34.25;;;;;15.54;52.12;102294.16;5021746;28;45614;-48
2021/09/22 03:11:18;;;;;;;;;37.25;32.50;;;;;15.53;51.85;102297.69;5002353;28;45457;-45
2021/09/22 03:13:43;;;;;;;;;42.25;35.50;;;;;15.52;52.04;102290.63;5002465;28;45361;-48
2021/09/22 03:16:09;;;;;;;;;40.25;32.25;;;;;15.50;52.22;102287.13;5002400;28;45215;-47
2021/09/22 03:18:35;;;;;;;;;36.50;33.50;;;;;15.48;51.67;102289.78;5001913;28;46052;-47
2021/09/22 03:21:01;;;;;;;;;39.25;32.50;;;;;15.44;51.93;102294.25;5001904;28;45327;-45
2021/09/22 03:23:27;;;;;;;;;38.25;32.00;;;;;15.46;51.97;102301.28;5002385;28;45396;-47
2021/09/22 03:25:53;;;;;;;;;37.25;33.00;;;;;15.44;51.78;102299.56;5001608;28;45434;-46
2021/09/22 03:28:18;;;;;;;;;39.50;34.00;;;;;15.43;51.59;102297.78;5001865;28;46217;-48
2021/09/22 03:30:44;;;;;;;;;37.75;33.00;;;;;15.40;52.02;102292.50;5001722;28;45268;-47
2021/09/22 03:33:09;;;;;;;;;40.00;32.50;;;;;15.40;52.27;102297.81;5015705;28;45297;-45
2021/09/22 03:35:35;;;;;;;;;37.25;33.25;;;;;15.39;52.11;102298.69;5021595;28;45638;-44
2021/09/22 03:38:00;;;;;;;;;41.00;35.00;;;;;15.38;52.18;102298.72;5021522;28;45289;-46
2021/09/22 03:40:26;;;;;;;;;38.75;35.00;;;;;15.37;52.36;102296.94;5013380;28;45392;-46
2021/09/22 03:42:52;;;;;;;;;39.75;35.00;;;;;15.34;52.21;102299.66;5015135;28;45339;-45
2021/09/22 03:45:17;;;;;;;;;41.25;32.75;;;;;15.34;51.92;102303.16;5021641;28;45313;-49
2021/09/22 03:47:42;;;;;;;;;40.00;33.00;;;;;15.32;52.20;102302.31;5021342;28;46123;-48
2021/09/22 03:50:09;;;;;;;;;38.25;33.00;;;;;15.32;51.81;102309.38;5021337;28;45365;-47
2021/09/22 03:52:34;;;;;;;;;40.00;31.75;;;;;15.30;51.82;102306.72;5021718;28;45382;-48
2021/09/22 03:55:00;;;;;;;;;39.75;33.25;;;;;15.28;51.94;102308.50;5020188;28;45415;-46
2021/09/22 03:57:25;;;;;;;;;32.75;30.25;;;;;15.28;52.33;102316.44;5021061;28;47017;-44
2021/09/22 03:59:51;;;;;;;;;42.75;34.75;;;;;15.25;52.35;102303.25;5021311;28;45332;-45
2021/09/22 04:02:16;;;;;;;;;39.75;35.25;;;;;15.25;52.60;102314.72;5021507;28;45289;-45
2021/09/22 04:04:42;;;;;;;;;34.25;32.00;;;;;15.23;52.47;102305.91;5021168;28;45628;-46
2021/09/22 04:07:07;;;;;;;;;40.25;33.25;;;;;15.23;51.87;102318.25;5021226;28;45428;-47
2021/09/22 04:09:33;;;;;;;;;42.50;34.25;;;;;15.21;52.15;102320.94;5015197;28;45342;-46
2021/09/22 04:11:58;;;;;;;;;34.50;32.00;;;;;15.19;52.24;102325.34;5001261;28;45352;-47
2021/09/22 04:14:23;;;;;;;;;44.00;35.25;;;;;15.17;52.08;102311.28;5001330;28;45381;-43
2021/09/22 04:16:49;;;;;;;;;36.75;32.75;;;;;15.16;52.32;102314.81;5001317;28;45241;-43
2021/09/22 04:19:14;;;;;;;;;36.00;31.75;;;;;15.13;51.89;102308.66;5001024;28;45281;-45
2021/09/22 04:21:40;;;;;;;;;39.50;33.00;;;;;15.12;51.98;102313.09;5001376;28;45194;-47
2021/09/22 04:24:05;;;;;;;;;50.25;42.25;;;;;15.11;52.69;102316.63;5001044;28;45476;-48
2021/09/22 04:26:31;;;;;;;;;64.75;51.00;;;;;15.09;52.55;102310.44;5000968;28;45413;-44
2021/09/22 04:28:56;;;;;;;;;46.25;34.75;;;;;15.08;52.27;102316.63;5016182;28;45205;-48
2021/09/22 04:31:22;;;;;;;;;43.50;35.00;;;;;15.06;52.36;102321.94;5011941;28;45314;-48
2021/09/22 04:33:47;;;;;;;;;41.50;35.25;;;;;15.05;52.06;102311.38;5020278;28;45217;-45
2021/09/22 04:36:13;;;;;;;;;37.50;32.25;;;;;14.99;52.28;102304.34;5020868;28;46204;-44
2021/09/22 04:38:41;;;;;;;;;44.00;34.75;;;;;15.01;52.41;102309.66;5019767;28;45319;-46
2021/09/22 04:41:06;;;;;;;;;36.75;33.00;;;;;14.99;52.38;102317.56;5020666;28;45262;-45
2021/09/22 04:43:31;;;;;;;;;41.00;34.00;;;;;14.98;52.17;102322.88;5020454;28;45379;-46
2021/09/22 04:45:57;;;;;;;;;36.50;32.25;;;;;14.94;52.35;102314.97;5020565;28;46113;-46
2021/09/22 04:48:22;;;;;;;;;38.50;33.75;;;;;14.96;52.75;102322.91;5020374;28;45387;-43
2021/09/22 04:50:48;;;;;;;;;38.50;33.00;;;;;14.95;52.40;102326.44;5020415;28;45541;-44
2021/09/22 04:53:13;;;;;;;;;40.00;33.50;;;;;14.92;52.35;102322.03;5019798;28;45390;-45
2021/09/22 04:55:38;;;;;;;;;42.50;37.25;;;;;14.92;52.38;102324.69;5020341;28;45430;-47
2021/09/22 04:58:04;;;;;;;;;38.25;32.75;;;;;14.93;52.75;102328.19;5020131;28;45311;-46
2021/09/22 05:00:29;;;;;;;;;37.00;32.25;;;;;14.90;52.67;102317.66;5020518;28;45289;-47
2021/09/22 05:02:54;;;;;;;;;41.25;33.00;;;;;14.88;52.40;102320.31;5020172;28;45241;-45
2021/09/22 05:05:20;;;;;;;;;39.75;34.00;;;;;14.87;52.82;102312.41;5019932;28;46029;-45
2021/09/22 05:07:45;;;;;;;;;37.25;32.00;;;;;14.85;52.48;102320.31;5020056;28;45190;-47
2021/09/22 05:10:11;;;;;;;;;40.25;34.00;;;;;14.83;52.51;102314.19;5008642;28;45270;-47
2021/09/22 05:12:36;;;;;;;;;41.25;34.00;;;;;14.84;52.52;102322.97;5000252;28;45242;-44
2021/09/22 05:15:03;;;;;;;;;43.00;33.75;;;;;14.80;52.34;102314.19;5000277;28;45435;-47
2021/09/22 05:17:28;;;;;;;;;34.50;32.50;;;;;14.81;52.75;102315.94;5000159;28;45424;-46
2021/09/22 05:19:54;;;;;;;;;37.50;32.25;;;;;14.78;52.58;102319.50;5000038;28;45171;-47
2021/09/22 05:22:19;;;;;;;;;45.50;35.50;;;;;14.78;52.81;102315.97;5000223;28;45174;-46
2021/09/22 05:24:45;;;;;;;;;38.75;33.25;;;;;14.77;52.78;102315.09;5000048;28;45472;-47
2021/09/22 05:27:11;;;;;;;;;37.75;33.25;;;;;14.76;52.77;102320.41;4999858;28;45454;-46
2021/09/22 05:29:37;;;;;;;;;39.50;32.75;;;;;14.75;52.35;102326.56;5002751;28;45379;-42
2021/09/22 05:32:03;;;;;;;;;37.25;33.00;;;;;14.73;52.45;102316.00;5017866;28;45401;-49
2021/09/22 05:34:28;;;;;;;;;53.00;43.25;;;;;14.73;52.80;102321.28;5019860;28;46375;-51
2021/09/22 05:36:54;;;;;;;;;51.25;42.00;;;;;14.73;52.51;102320.41;5020036;28;45639;-53
2021/09/22 05:39:19;;;;;;;;;39.50;35.00;;;;;14.73;52.61;102323.03;5020521;28;45322;-52
2021/09/22 05:41:45;;;;;;;;;44.50;35.75;;;;;14.74;53.01;102327.44;5020242;28;45164;-52
2021/09/22 05:44:11;;;;;;;;;42.75;35.00;;;;;14.73;53.01;102323.94;5020421;28;45488;-52
2021/09/22 05:46:36;;;;;;;;;44.25;35.00;;;;;14.74;52.99;102333.63;5022173;28;45246;-51
2021/09/22 05:49:03;;;;;;;;;44.25;37.75;;;;;14.73;52.57;102331.88;5018760;28;45560;-49
2021/09/22 05:51:29;;;;;;;;;43.25;35.50;;;;;14.74;52.65;102330.09;5010286;28;45183;-62
2021/09/22 05:53:54;;;;;;;;;45.50;35.75;;;;;14.74;52.82;102331.00;5008206;28;46019;-52
2021/09/22 05:56:19;;;;;;;;;39.25;32.75;;;;;14.74;52.91;102335.38;5011108;28;45403;-52
2021/09/22 05:58:45;;;;;;;;;44.00;34.00;;;;;14.75;52.67;102339.81;5009694;28;45416;-52
2021/09/22 06:01:10;;;;;;;;;40.50;34.00;;;;;14.74;52.68;102338.94;5012893;28;45388;-52
2021/09/22 06:03:36;;;;;;;;;38.50;32.25;;;;;14.76;52.96;102346.84;5017518;28;47286;-61
2021/09/22 06:06:02;;;;;;;;;49.00;38.00;;;;;14.75;52.52;102346.00;5009948;28;45470;-48
2021/09/22 06:08:27;;;;;;;;;46.50;36.50;;;;;14.77;52.71;102345.97;5017151;28;45344;-48
2021/09/22 06:10:53;;;;;;;;;42.75;35.25;;;;;14.77;53.04;102341.53;5013120;28;45601;-48
2021/09/22 06:13:18;;;;;;;;;41.50;34.75;;;;;14.78;52.69;102348.59;5021529;28;46155;-51
2021/09/22 06:15:43;;;;;;;;;39.25;34.50;;;;;14.78;52.93;102343.31;4999521;28;45331;-55
2021/09/22 06:18:09;;;;;;;;;40.25;34.00;;;;;14.81;53.04;102349.47;5012633;28;45454;-51
2021/09/22 06:20:35;;;;;;;;;44.75;38.25;;;;;14.80;52.79;102353.88;5015520;28;45425;-49
2021/09/22 06:23:00;;;;;;;;;65.00;50.00;;;;;14.81;53.05;102345.06;5007843;28;45258;-48
2021/09/22 06:25:26;;;;;;;;;61.75;48.00;;;;;14.83;52.94;102343.28;5017506;28;45222;-59
2021/09/22 06:27:51;;;;;;;;;50.75;39.75;;;;;14.84;52.76;102350.34;5005599;28;45501;-57
2021/09/22 06:30:17;;;;;;;;;39.00;34.50;;;;;14.85;52.87;102346.78;5005497;28;45598;-57
2021/09/22 06:32:42;;;;;;;;;44.25;35.50;;;;;14.86;53.07;102347.69;5004086;28;46003;-50
2021/09/22 06:35:10;;;;;;;;;40.50;36.00;;;;;14.89;52.85;102352.94;5009587;28;45237;-50
2021/09/22 06:37:36;;;;;;;;;38.50;34.75;;;;;14.89;52.69;102352.94;5019474;28;45364;-53
2021/09/22 06:40:04;;;;;;;;;40.75;34.50;;;;;14.92;53.14;102356.44;5025857;28;45521;-52
2021/09/22 06:42:29;;;;;;;;;43.25;35.00;;;;;14.93;52.61;102352.91;5018465;28;45474;-52
2021/09/22 06:44:55;;;;;;;;;37.50;31.50;;;;;14.95;52.62;102358.19;5011028;28;45270;-53
2021/09/22 06:47:20;;;;;;;;;43.50;36.00;;;;;14.97;52.70;102350.22;5017307;28;45333;-52
2021/09/22 06:49:45;;;;;;;;;39.25;34.25;;;;;15.00;52.93;102348.44;4999097;28;45310;-54
2021/09/22 06:52:11;;;;;;;;;43.00;35.75;;;;;15.04;52.78;102360.81;5005563;28;45253;-53
2021/09/22 06:54:36;;;;;;;;;41.25;35.00;;;;;15.07;53.21;102352.81;5001967;28;45295;-53
2021/09/22 06:57:02;;;;;;;;;42.75;33.75;;;;;15.09;52.79;102355.44;5017500;28;45392;-51
2021/09/22 06:59:28;;;;;;;;;36.75;33.50;;;;;15.14;53.11;102363.38;5002303;28;45308;-54
2021/09/22 07:01:53;;;;;;;;;44.75;36.00;;;;;15.16;53.11;102358.94;5011884;28;45836;-53
2021/09/22 07:04:19;;;;;;;;;43.00;33.75;;;;;15.18;52.47;102354.50;5006090;28;45238;-52
2021/09/22 07:06:44;;;;;;;;;44.75;35.00;;;;;15.22;53.16;102359.78;5020641;28;45485;-54
2021/09/22 07:09:10;;;;;;;;;44.50;36.50;;;;;15.24;53.05;102359.75;5021707;28;45459;-52
2021/09/22 07:11:36;;;;;;;;;38.00;32.75;;;;;15.26;53.05;102358.84;5006209;28;46160;-51
2021/09/22 07:14:02;;;;;;;;;44.25;36.50;;;;;15.27;52.97;102357.09;5019108;28;45327;-51
2021/09/22 07:16:27;;;;;;;;;39.25;34.00;;;;;15.29;52.92;102355.28;5024179;28;45539;-51
2021/09/22 07:18:53;;;;;;;;;41.50;33.75;;;;;15.32;53.20;102357.03;5010859;28;45460;-51
2021/09/22 07:21:18;;;;;;;;;38.25;32.50;;;;;15.33;53.01;102370.25;5021648;28;45452;-47
2021/09/22 07:23:44;;;;;;;;;38.75;32.00;;;;;15.34;52.96;102373.81;5021904;28;45385;-48
2021/09/22 07:26:10;;;;;;;;;39.00;34.75;;;;;15.38;52.89;102378.19;5015697;28;45440;-47
2021/09/22 07:28:35;;;;;;;;;37.50;32.00;;;;;15.37;52.79;102374.66;5019453;28;45245;-48
2021/09/22 07:31:02;;;;;;;;;39.25;33.75;;;;;15.41;53.04;102384.34;5016768;28;47390;-49
2021/09/22 07:33:28;;;;;;;;;41.75;34.50;;;;;15.45;52.77;102387.84;5016501;28;45879;-50
2021/09/22 07:35:54;;;;;;;;;33.75;30.75;;;;;15.45;52.83;102385.19;5010917;28;45274;-51
2021/09/22 07:38:20;;;;;;;;;42.25;33.75;;;;;15.50;53.10;102382.50;5001539;28;45392;-50
2021/09/22 07:40:45;;;;;;;;;33.75;31.50;;;;;15.53;53.04;102385.97;5001789;28;45424;-47
2021/09/22 07:43:11;;;;;;;;;34.25;32.00;;;;;15.55;52.83;102393.94;5001509;28;45270;-49
2021/09/22 07:45:37;;;;;;;;;40.50;32.50;;;;;15.55;52.54;102386.88;5001717;28;45429;-48
2021/09/22 07:48:03;;;;;;;;;34.00;29.25;;;;;15.63;52.56;102388.56;5002134;28;45397;-48
2021/09/22 07:50:29;;;;;;;;;28.25;28.25;;;;;15.63;52.76;102391.22;5009483;28;45426;-47
2021/09/22 07:52:55;;;;;;;;;29.50;26.00;;;;;15.67;52.42;102395.59;5010806;28;45405;-46
2021/09/22 07:55:20;;;;;;;;;27.50;27.25;;;;;15.68;52.39;102392.91;5009256;28;45230;-48
2021/09/22 07:57:48;;;;;;;;;25.50;24.75;;;;;15.71;52.79;102392.91;5009742;28;45530;-46
2021/09/22 08:00:14;;;;;;;;;30.25;26.00;;;;;15.75;52.92;102394.63;5006909;28;45622;-47
2021/09/22 08:02:40;;;;;;;;;29.50;26.00;;;;;15.78;52.74;102396.38;5011485;28;45426;-48
2021/09/22 08:05:07;;;;;;;;;32.50;28.50;;;;;15.82;52.78;102398.13;5009655;28;45483;-45
2021/09/22 08:07:32;;;;;;;;;30.25;26.25;;;;;15.84;52.43;102396.34;5010431;28;45346;-47
2021/09/22 08:09:58;;;;;;;;;38.50;31.00;;;;;15.87;52.86;102391.03;5010522;28;46264;-50
2021/09/22 08:12:23;;;;;;;;;34.75;28.50;;;;;15.93;52.39;102401.53;5008129;28;45415;-47
2021/09/22 08:14:49;;;;;;;;;36.25;29.00;;;;;15.97;52.11;102398.88;5009266;28;46339;-52
2021/09/22 08:17:14;;;;;;;;;31.25;28.75;;;;;16.00;52.36;102405.03;5010484;28;45586;-49
2021/09/22 08:19:41;;;;;;;;;33.25;30.75;;;;;16.05;52.28;102402.31;5012575;28;47150;-53
2021/09/22 08:22:07;;;;;;;;;32.75;30.50;;;;;16.07;52.25;102393.47;5009690;28;45437;-51
2021/09/22 08:24:33;;;;;;;;;38.25;30.50;;;;;16.14;52.04;102398.69;5008537;28;45417;-49
2021/09/22 08:26:58;;;;;;;;;33.50;30.50;;;;;16.18;52.29;102398.63;5008041;28;45421;-51
2021/09/22 08:29:24;;;;;;;;;35.75;28.75;;;;;16.22;52.10;102399.47;5008427;28;45398;-47
2021/09/22 08:31:50;;;;;;;;;36.50;32.25;;;;;16.23;52.35;102391.50;5013716;28;45376;-47
2021/09/22 08:34:17;;;;;;;;;23.50;22.75;;;;;16.31;52.21;102398.50;5000954;28;45431;-49
2021/09/22 08:36:44;;;;;;;;;22.50;22.00;;;;;16.36;52.34;102396.66;5016244;28;45513;-52
2021/09/22 08:39:11;;;;;;;;;27.75;24.75;;;;;16.41;52.36;102395.72;5030502;28;46687;-48
2021/09/22 08:41:37;;;;;;;;;27.50;27.00;;;;;16.48;51.81;102398.31;5020332;28;45245;-48
2021/09/22 08:44:04;;;;;;;;;22.00;21.75;;;;;16.53;52.20;102394.69;5010984;28;45428;-46
2021/09/22 08:46:34;;;;;;;;;26.75;25.00;;;;;16.58;52.16;102395.50;5030323;28;45379;-47
2021/09/22 08:49:01;;;;;;;;;27.00;22.00;;;;;16.66;52.00;102399.81;5018797;28;46858;-47
2021/09/22 08:51:27;;;;;;;;;20.50;19.75;;;;;16.66;51.96;102387.41;5002398;28;45452;-49
2021/09/22 08:53:52;;;;;;;;;20.75;20.75;;;;;16.81;51.62;102398.75;5000487;28;45312;-47
2021/09/22 08:56:17;;;;;;;;;25.00;22.00;;;;;16.88;51.96;102395.09;5000404;28;45218;-47
2021/09/22 08:58:43;;;;;;;;;23.25;23.00;;;;;16.96;51.89;102392.38;5001981;28;45267;-46
2021/09/22 09:01:14;;;;;;;;;21.50;20.50;;;;;17.07;51.85;102401.06;5015532;28;45293;-55
2021/09/22 09:03:41;;;;;;;;;28.25;26.00;;;;;17.15;51.83;102400.94;5011206;28;45397;-52
2021/09/22 09:06:33;;;;;;;;;19.75;18.75;;;;;17.24;52.20;102399.91;5014372;28;45325;-51
2021/09/22 09:08:59;;;;;;;;;22.00;20.75;;;;;17.33;51.62;102402.41;5002619;28;46333;-47
2021/09/22 09:11:30;;;;;;;;;21.25;20.75;;;;;17.45;51.36;102402.22;5020052;28;45254;-49
2021/09/22 09:13:57;;;;;;;;;23.25;22.25;;;;;17.53;51.56;102400.31;5008243;28;45519;-49
2021/09/22 09:16:30;;;;;;;;;23.50;21.75;;;;;17.65;51.64;102398.34;5010693;28;45466;-47
2021/09/22 09:18:55;;;;;;;;;25.25;20.25;;;;;17.75;51.36;102391.97;5008925;28;46174;-46
2021/09/22 09:21:22;;;;;;;;;25.00;20.75;;;;;17.85;51.47;102385.56;5008603;28;45537;-47
2021/09/22 09:23:56;;;;;;;;;25.00;23.25;;;;;17.97;51.46;102391.59;5007263;28;45442;-48
2021/09/22 09:26:27;;;;;;;;;22.75;21.25;;;;;18.07;51.38;102382.50;5007545;28;45242;-45
2021/09/22 09:28:57;;;;;;;;;22.25;19.75;;;;;18.18;51.24;102385.84;4999714;28;46460;-49
2021/09/22 09:31:30;;;;;;;;;23.25;20.75;;;;;18.32;51.30;102385.56;5007983;28;46418;-46
2021/09/22 09:33:57;;;;;;;;;22.50;20.50;;;;;18.43;50.99;102384.47;5009138;28;45411;-48
2021/09/22 09:36:25;;;;;;;;;18.00;16.00;;;;;18.55;50.81;102386.00;5007869;28;45554;-47
2021/09/22 09:39:09;;;;;;;;;23.25;21.00;;;;;18.67;51.39;102386.59;5010378;28;45519;-48
2021/09/22 09:41:45;;;;;;;;;24.00;17.75;;;;;18.81;50.73;102385.41;5009254;28;45432;-47
2021/09/22 09:44:13;;;;;;;;;21.50;17.50;;;;;18.93;50.73;102382.50;5009077;28;45487;-46
2021/09/22 09:46:40;;;;;;;;;23.00;16.00;;;;;19.06;50.81;102376.88;5007201;28;45397;-47
2021/09/22 09:49:07;;;;;;;;;18.25;17.00;;;;;19.16;50.76;102371.28;5007605;28;45480;-46
2021/09/22 09:51:46;;;;;;;;;21.75;18.00;;;;;19.30;50.33;102373.59;5010100;28;45469;-46
2021/09/22 09:54:18;;;;;;;;;18.25;16.75;;;;;19.41;50.42;102365.34;5008897;28;45463;-43
2021/09/22 09:56:45;;;;;;;;;17.50;15.25;;;;;19.56;50.31;102365.84;5009231;28;45460;-47
2021/09/22 09:59:10;;;;;;;;;18.50;15.25;;;;;19.69;50.35;102361.09;5005373;28;45471;-47
2021/09/22 10:01:42;;;;;;;;;18.75;17.50;;;;;19.81;49.75;102366.94;5006768;28;45361;-45
2021/09/22 10:04:10;;;;;;;;;13.75;13.75;;;;;19.95;50.30;102365.75;5006516;28;45262;-43
2021/09/22 10:06:35;;;;;;;;;18.00;16.25;;;;;20.09;49.72;102360.00;5008957;28;45464;-45
2021/09/22 10:09:02;;;;;;;;;17.25;15.00;;;;;20.21;49.30;102358.78;5006523;28;46819;-46
2021/09/22 10:11:28;;;;;;;;;13.00;11.75;;;;;20.34;49.82;102357.50;5008088;28;45489;-47
2021/09/22 10:13:54;;;;;;;;;12.00;12.00;;;;;20.46;49.14;102353.56;5007051;28;45388;-44
2021/09/22 10:16:20;;;;;;;;;12.00;11.00;;;;;20.59;49.44;102354.06;5006418;28;45594;-46
2021/09/22 10:18:49;;;;;;;;;13.50;12.50;;;;;20.72;49.60;102341.25;5005046;28;46116;-50
2021/09/22 10:21:18;;;;;;;;;15.00;13.50;;;;;20.84;49.15;102343.53;5017330;28;45378;-45
2021/09/22 10:23:44;;;;;;;;;10.00;9.00;;;;;20.97;48.67;102345.78;5011165;28;45485;-44
2021/09/22 10:26:10;;;;;;;;;9.25;9.25;;;;;21.09;49.14;102337.38;4996998;28;45791;-43
2021/09/22 10:28:37;;;;;;;;;12.00;9.75;;;;;21.23;48.88;102339.56;5012740;28;47328;-42
2021/09/22 10:31:04;;;;;;;;;9.75;8.25;;;;;21.34;48.60;102326.72;5004854;28;45429;-45
2021/09/22 10:33:32;;;;;;;;;7.00;7.00;;;;;21.49;48.13;102324.44;5003003;28;45565;-44
2021/09/22 10:36:00;;;;;;;;;9.25;9.25;;;;;21.62;48.47;102316.88;5019182;28;45388;-44
2021/09/22 10:38:28;;;;;;;;;15.75;14.25;;;;;21.77;48.36;102323.50;5016505;28;46248;-45
2021/09/22 10:40:56;;;;;;;;;14.25;12.00;;;;;21.89;48.22;102312.34;5011053;28;45515;-46
2021/09/22 10:43:25;;;;;;;;;12.75;12.75;;;;;22.05;47.79;102309.97;5002384;28;45288;-48
2021/09/22 10:46:00;;;;;;;;;8.00;7.25;;;;;22.19;48.00;102304.94;5002309;28;45454;-46
2021/09/22 10:48:25;;;;;;;;;8.50;8.50;;;;;22.35;48.10;102313.25;5002177;28;45357;-46
2021/09/22 10:50:53;;;;;;;;;7.75;7.25;;;;;22.50;47.54;102305.56;5002402;28;45477;-45
2021/09/22 10:53:30;;;;;;;;;6.75;6.75;;;;;22.66;47.61;102312.06;5002476;28;45325;-43
2021/09/22 10:56:10;;;;;;;;;9.75;9.75;;;;;22.85;47.60;102314.00;5002184;28;45523;-46
2021/09/22 10:58:42;;;;;;;;;14.75;14.75;;;;;23.01;47.56;102304.38;5002982;28;45428;-45
2021/09/22 11:01:08;;;;;;;;;12.50;12.25;;;;;23.19;47.52;102291.16;5017146;28;45481;-44
2021/09/22 11:03:46;;;;;;;;;11.75;9.00;;;;;23.41;47.21;102292.88;5013694;28;45424;-45
2021/09/22 11:06:47;;;;;;;;;9.25;9.25;;;;;23.66;46.99;102292.66;5019767;28;45590;-47